sensor_id;sensor_type;location;lat;lon;timestamp;P1;durP1;ratioP1;P2;durP2;ratioP2
49237;SDS011;35069;47.906;1.892;2023-12-14T00:01:51;2.08;;;1.33;;
49237;SDS011;35069;47.906;1.892;2023-12-14T00:04:17;4.88;;;1.70;;
49237;SDS011;35069;47.906;1.892;2023-12-14T00:06:43;2.50;;;1.60;;
49237;SDS011;35069;47.906;1.892;2023-12-14T00:09:08;3.17;;;1.40;;
49237;SDS011;35069;47.906;1.892;2023-12-14T00:11:37;2.38;;;1.58;;
49237;SDS011;35069;47.906;1.892;2023-12-14T00:14:06;8.68;;;1.73;;
49237;SDS011;35069;47.906;1.892;2023-12-14T00:16:32;3.30;;;1.88;;
49237;SDS011;35069;47.906;1.892;2023-12-14T00:18:57;2.67;;;1.60;;
49237;SDS011;35069;47.906;1.892;2023-12-14T00:21:23;3.85;;;1.83;;
49237;SDS011;35069;47.906;1.892;2023-12-14T00:23:49;6.25;;;3.65;;
49237;SDS011;35069;47.906;1.892;2023-12-14T00:26:14;4.47;;;2.10;;
49237;SDS011;35069;47.906;1.892;2023-12-14T00:28:40;3.85;;;2.45;;
49237;SDS011;35069;47.906;1.892;2023-12-14T00:31:05;5.85;;;1.90;;
49237;SDS011;35069;47.906;1.892;2023-12-14T00:33:31;3.90;;;1.65;;
49237;SDS011;35069;47.906;1.892;2023-12-14T00:35:57;5.10;;;2.35;;
49237;SDS011;35069;47.906;1.892;2023-12-14T00:38:23;4.28;;;1.83;;
49237;SDS011;35069;47.906;1.892;2023-12-14T00:40:48;4.53;;;2.10;;
49237;SDS011;35069;47.906;1.892;2023-12-14T00:43:14;3.78;;;2.00;;
49237;SDS011;35069;47.906;1.892;2023-12-14T00:45:39;2.03;;;1.73;;
49237;SDS011;35069;47.906;1.892;2023-12-14T00:48:06;4.65;;;1.60;;
49237;SDS011;35069;47.906;1.892;2023-12-14T00:50:32;3.50;;;2.00;;
49237;SDS011;35069;47.906;1.892;2023-12-14T00:52:57;2.80;;;1.60;;
49237;SDS011;35069;47.906;1.892;2023-12-14T00:55:23;4.90;;;1.65;;
49237;SDS011;35069;47.906;1.892;2023-12-14T00:57:48;3.92;;;2.10;;
49237;SDS011;35069;47.906;1.892;2023-12-14T01:00:14;3.60;;;1.40;;
49237;SDS011;35069;47.906;1.892;2023-12-14T01:02:40;4.30;;;1.23;;
49237;SDS011;35069;47.906;1.892;2023-12-14T01:05:05;6.07;;;1.77;;
49237;SDS011;35069;47.906;1.892;2023-12-14T01:07:32;1.52;;;1.13;;
49237;SDS011;35069;47.906;1.892;2023-12-14T01:09:57;3.45;;;0.98;;
49237;SDS011;35069;47.906;1.892;2023-12-14T01:12:23;12.00;;;1.33;;
49237;SDS011;35069;47.906;1.892;2023-12-14T01:14:48;4.45;;;1.17;;
49237;SDS011;35069;47.906;1.892;2023-12-14T01:17:14;4.00;;;1.10;;
49237;SDS011;35069;47.906;1.892;2023-12-14T01:19:40;5.05;;;0.90;;
49237;SDS011;35069;47.906;1.892;2023-12-14T01:22:06;1.65;;;0.60;;
49237;SDS011;35069;47.906;1.892;2023-12-14T01:24:32;3.63;;;1.15;;
49237;SDS011;35069;47.906;1.892;2023-12-14T01:26:57;4.00;;;0.88;;
49237;SDS011;35069;47.906;1.892;2023-12-14T01:29:23;3.25;;;0.85;;
49237;SDS011;35069;47.906;1.892;2023-12-14T01:31:48;2.45;;;0.70;;
49237;SDS011;35069;47.906;1.892;2023-12-14T01:34:14;1.60;;;0.95;;
49237;SDS011;35069;47.906;1.892;2023-12-14T01:36:40;3.97;;;1.40;;
49237;SDS011;35069;47.906;1.892;2023-12-14T01:39:06;2.72;;;0.73;;
49237;SDS011;35069;47.906;1.892;2023-12-14T01:41:32;3.30;;;1.15;;
49237;SDS011;35069;47.906;1.892;2023-12-14T01:43:57;2.40;;;0.75;;
49237;SDS011;35069;47.906;1.892;2023-12-14T01:46:23;5.70;;;1.05;;
49237;SDS011;35069;47.906;1.892;2023-12-14T01:48:49;0.88;;;0.60;;
49237;SDS011;35069;47.906;1.892;2023-12-14T01:51:15;0.95;;;0.75;;
49237;SDS011;35069;47.906;1.892;2023-12-14T01:53:40;3.83;;;0.95;;
49237;SDS011;35069;47.906;1.892;2023-12-14T01:56:06;2.40;;;0.60;;
49237;SDS011;35069;47.906;1.892;2023-12-14T01:58:32;1.73;;;0.80;;
49237;SDS011;35069;47.906;1.892;2023-12-14T02:03:45;6.30;;;0.98;;
49237;SDS011;35069;47.906;1.892;2023-12-14T02:06:13;7.18;;;1.38;;
49237;SDS011;35069;47.906;1.892;2023-12-14T02:08:38;2.63;;;0.90;;
49237;SDS011;35069;47.906;1.892;2023-12-14T02:11:04;4.75;;;0.93;;
49237;SDS011;35069;47.906;1.892;2023-12-14T02:13:29;2.60;;;0.82;;
49237;SDS011;35069;47.906;1.892;2023-12-14T02:15:55;2.10;;;0.82;;
49237;SDS011;35069;47.906;1.892;2023-12-14T02:18:21;3.33;;;0.80;;
49237;SDS011;35069;47.906;1.892;2023-12-14T02:20:46;6.00;;;1.13;;
49237;SDS011;35069;47.906;1.892;2023-12-14T02:23:12;3.67;;;1.17;;
49237;SDS011;35069;47.906;1.892;2023-12-14T02:25:38;0.95;;;0.77;;
49237;SDS011;35069;47.906;1.892;2023-12-14T02:28:03;3.72;;;0.70;;
49237;SDS011;35069;47.906;1.892;2023-12-14T02:30:29;3.38;;;0.80;;
49237;SDS011;35069;47.906;1.892;2023-12-14T02:32:55;5.95;;;1.42;;
49237;SDS011;35069;47.906;1.892;2023-12-14T02:35:20;2.10;;;0.80;;
49237;SDS011;35069;47.906;1.892;2023-12-14T02:37:47;5.07;;;1.02;;
49237;SDS011;35069;47.906;1.892;2023-12-14T02:40:14;1.73;;;0.90;;
49237;SDS011;35069;47.906;1.892;2023-12-14T02:42:40;3.78;;;1.02;;
49237;SDS011;35069;47.906;1.892;2023-12-14T02:45:06;5.85;;;1.00;;
49237;SDS011;35069;47.906;1.892;2023-12-14T02:47:33;5.07;;;1.23;;
49237;SDS011;35069;47.906;1.892;2023-12-14T02:50:01;5.25;;;0.90;;
49237;SDS011;35069;47.906;1.892;2023-12-14T02:52:27;2.95;;;0.75;;
49237;SDS011;35069;47.906;1.892;2023-12-14T02:54:52;4.10;;;0.88;;
49237;SDS011;35069;47.906;1.892;2023-12-14T02:57:18;6.10;;;0.70;;
49237;SDS011;35069;47.906;1.892;2023-12-14T02:59:43;4.00;;;1.05;;
49237;SDS011;35069;47.906;1.892;2023-12-14T03:02:09;3.15;;;1.00;;
49237;SDS011;35069;47.906;1.892;2023-12-14T03:04:37;2.10;;;0.90;;
49237;SDS011;35069;47.906;1.892;2023-12-14T03:07:04;1.70;;;1.08;;
49237;SDS011;35069;47.906;1.892;2023-12-14T03:09:30;4.55;;;1.42;;
49237;SDS011;35069;47.906;1.892;2023-12-14T03:11:55;5.22;;;1.27;;
49237;SDS011;35069;47.906;1.892;2023-12-14T03:14:21;1.95;;;0.80;;
49237;SDS011;35069;47.906;1.892;2023-12-14T03:16:47;4.40;;;1.00;;
49237;SDS011;35069;47.906;1.892;2023-12-14T03:19:14;1.05;;;0.75;;
49237;SDS011;35069;47.906;1.892;2023-12-14T03:21:42;2.80;;;1.02;;
49237;SDS011;35069;47.906;1.892;2023-12-14T03:24:08;2.67;;;1.23;;
49237;SDS011;35069;47.906;1.892;2023-12-14T03:26:37;5.13;;;1.00;;
49237;SDS011;35069;47.906;1.892;2023-12-14T03:29:02;7.57;;;1.08;;
49237;SDS011;35069;47.906;1.892;2023-12-14T03:31:28;2.10;;;1.00;;
49237;SDS011;35069;47.906;1.892;2023-12-14T03:33:53;2.40;;;1.33;;
49237;SDS011;35069;47.906;1.892;2023-12-14T03:36:19;2.22;;;1.00;;
49237;SDS011;35069;47.906;1.892;2023-12-14T03:38:44;5.15;;;1.38;;
49237;SDS011;35069;47.906;1.892;2023-12-14T03:41:13;6.13;;;0.80;;
49237;SDS011;35069;47.906;1.892;2023-12-14T03:43:38;2.38;;;0.90;;
49237;SDS011;35069;47.906;1.892;2023-12-14T03:46:04;3.58;;;0.90;;
49237;SDS011;35069;47.906;1.892;2023-12-14T03:48:31;4.88;;;1.30;;
49237;SDS011;35069;47.906;1.892;2023-12-14T03:50:57;3.63;;;1.20;;
49237;SDS011;35069;47.906;1.892;2023-12-14T03:53:22;6.40;;;1.13;;
49237;SDS011;35069;47.906;1.892;2023-12-14T03:55:48;1.30;;;0.80;;
49237;SDS011;35069;47.906;1.892;2023-12-14T03:58:13;2.83;;;0.90;;
49237;SDS011;35069;47.906;1.892;2023-12-14T04:00:39;4.85;;;1.70;;
49237;SDS011;35069;47.906;1.892;2023-12-14T04:03:05;1.85;;;0.80;;
49237;SDS011;35069;47.906;1.892;2023-12-14T04:05:30;4.78;;;1.02;;
49237;SDS011;35069;47.906;1.892;2023-12-14T04:07:56;3.22;;;1.15;;
49237;SDS011;35069;47.906;1.892;2023-12-14T04:10:21;3.42;;;1.52;;
49237;SDS011;35069;47.906;1.892;2023-12-14T04:12:47;5.72;;;1.73;;
49237;SDS011;35069;47.906;1.892;2023-12-14T04:15:12;4.60;;;1.50;;
49237;SDS011;35069;47.906;1.892;2023-12-14T04:17:38;1.75;;;0.82;;
49237;SDS011;35069;47.906;1.892;2023-12-14T04:20:04;2.63;;;0.77;;
49237;SDS011;35069;47.906;1.892;2023-12-14T04:22:31;7.28;;;1.58;;
49237;SDS011;35069;47.906;1.892;2023-12-14T04:24:56;2.72;;;0.93;;
49237;SDS011;35069;47.906;1.892;2023-12-14T04:27:22;1.98;;;0.95;;
49237;SDS011;35069;47.906;1.892;2023-12-14T04:29:52;3.85;;;1.23;;
49237;SDS011;35069;47.906;1.892;2023-12-14T04:32:17;3.25;;;1.13;;
49237;SDS011;35069;47.906;1.892;2023-12-14T04:34:43;3.08;;;1.20;;
49237;SDS011;35069;47.906;1.892;2023-12-14T04:37:08;3.90;;;1.00;;
49237;SDS011;35069;47.906;1.892;2023-12-14T04:39:34;4.88;;;1.27;;
49237;SDS011;35069;47.906;1.892;2023-12-14T04:41:59;4.45;;;1.17;;
49237;SDS011;35069;47.906;1.892;2023-12-14T04:44:25;4.55;;;1.58;;
49237;SDS011;35069;47.906;1.892;2023-12-14T04:46:50;3.17;;;0.70;;
49237;SDS011;35069;47.906;1.892;2023-12-14T04:49:16;3.30;;;0.98;;
49237;SDS011;35069;47.906;1.892;2023-12-14T04:51:44;4.97;;;1.10;;
49237;SDS011;35069;47.906;1.892;2023-12-14T04:54:09;2.17;;;1.05;;
49237;SDS011;35069;47.906;1.892;2023-12-14T04:56:35;3.20;;;1.10;;
49237;SDS011;35069;47.906;1.892;2023-12-14T04:59:00;2.88;;;0.80;;
49237;SDS011;35069;47.906;1.892;2023-12-14T05:01:26;4.82;;;1.20;;
49237;SDS011;35069;47.906;1.892;2023-12-14T05:03:52;4.82;;;1.25;;
49237;SDS011;35069;47.906;1.892;2023-12-14T05:06:18;2.42;;;1.05;;
49237;SDS011;35069;47.906;1.892;2023-12-14T05:08:43;4.00;;;0.93;;
49237;SDS011;35069;47.906;1.892;2023-12-14T05:11:09;2.85;;;1.10;;
49237;SDS011;35069;47.906;1.892;2023-12-14T05:13:35;3.97;;;1.13;;
49237;SDS011;35069;47.906;1.892;2023-12-14T05:16:00;3.92;;;1.95;;
49237;SDS011;35069;47.906;1.892;2023-12-14T05:18:26;5.47;;;1.00;;
49237;SDS011;35069;47.906;1.892;2023-12-14T05:20:52;4.93;;;1.38;;
49237;SDS011;35069;47.906;1.892;2023-12-14T05:23:18;7.05;;;1.10;;
49237;SDS011;35069;47.906;1.892;2023-12-14T05:25:44;4.40;;;1.63;;
49237;SDS011;35069;47.906;1.892;2023-12-14T05:28:10;5.90;;;1.75;;
49237;SDS011;35069;47.906;1.892;2023-12-14T05:30:35;2.38;;;1.30;;
49237;SDS011;35069;47.906;1.892;2023-12-14T05:33:01;1.80;;;1.33;;
49237;SDS011;35069;47.906;1.892;2023-12-14T05:35:27;3.85;;;2.08;;
49237;SDS011;35069;47.906;1.892;2023-12-14T05:37:52;2.42;;;0.93;;
49237;SDS011;35069;47.906;1.892;2023-12-14T05:40:18;4.15;;;1.58;;
49237;SDS011;35069;47.906;1.892;2023-12-14T05:42:43;2.40;;;1.27;;
49237;SDS011;35069;47.906;1.892;2023-12-14T05:45:09;5.50;;;0.82;;
49237;SDS011;35069;47.906;1.892;2023-12-14T05:47:35;5.05;;;1.17;;
49237;SDS011;35069;47.906;1.892;2023-12-14T05:50:00;1.38;;;0.88;;
49237;SDS011;35069;47.906;1.892;2023-12-14T05:52:26;7.25;;;1.63;;
49237;SDS011;35069;47.906;1.892;2023-12-14T05:54:52;3.50;;;1.23;;
49237;SDS011;35069;47.906;1.892;2023-12-14T05:57:18;1.90;;;0.88;;
49237;SDS011;35069;47.906;1.892;2023-12-14T05:59:44;2.85;;;1.02;;
49237;SDS011;35069;47.906;1.892;2023-12-14T06:02:09;1.83;;;0.93;;
49237;SDS011;35069;47.906;1.892;2023-12-14T06:04:35;1.88;;;1.08;;
49237;SDS011;35069;47.906;1.892;2023-12-14T06:07:00;3.58;;;1.13;;
49237;SDS011;35069;47.906;1.892;2023-12-14T06:09:26;2.88;;;1.10;;
49237;SDS011;35069;47.906;1.892;2023-12-14T06:11:59;3.70;;;2.47;;
49237;SDS011;35069;47.906;1.892;2023-12-14T06:14:28;2.13;;;0.90;;
49237;SDS011;35069;47.906;1.892;2023-12-14T06:16:53;5.40;;;1.33;;
49237;SDS011;35069;47.906;1.892;2023-12-14T06:19:19;6.32;;;1.08;;
49237;SDS011;35069;47.906;1.892;2023-12-14T06:21:56;4.43;;;1.40;;
49237;SDS011;35069;47.906;1.892;2023-12-14T06:24:25;3.80;;;1.42;;
49237;SDS011;35069;47.906;1.892;2023-12-14T06:26:54;4.38;;;1.15;;
49237;SDS011;35069;47.906;1.892;2023-12-14T06:29:19;2.92;;;1.10;;
49237;SDS011;35069;47.906;1.892;2023-12-14T06:31:45;4.25;;;0.88;;
49237;SDS011;35069;47.906;1.892;2023-12-14T06:34:11;9.75;;;2.55;;
49237;SDS011;35069;47.906;1.892;2023-12-14T06:37:10;3.80;;;1.30;;
49237;SDS011;35069;47.906;1.892;2023-12-14T06:42:39;2.15;;;1.35;;
49237;SDS011;35069;47.906;1.892;2023-12-14T06:45:07;4.45;;;1.77;;
49237;SDS011;35069;47.906;1.892;2023-12-14T06:48:03;6.55;;;1.10;;
49237;SDS011;35069;47.906;1.892;2023-12-14T06:50:57;6.95;;;1.50;;
49237;SDS011;35069;47.906;1.892;2023-12-14T06:53:23;7.60;;;1.73;;
49237;SDS011;35069;47.906;1.892;2023-12-14T06:55:49;1.45;;;1.35;;
49237;SDS011;35069;47.906;1.892;2023-12-14T06:58:17;4.50;;;1.35;;
49237;SDS011;35069;47.906;1.892;2023-12-14T07:00:43;6.25;;;1.42;;
49237;SDS011;35069;47.906;1.892;2023-12-14T07:06:41;2.15;;;1.40;;
49237;SDS011;35069;47.906;1.892;2023-12-14T07:27:07;1.48;;;1.08;;
49237;SDS011;35069;47.906;1.892;2023-12-14T07:40:12;4.65;;;1.17;;
49237;SDS011;35069;47.906;1.892;2023-12-14T07:43:03;2.72;;;1.15;;
49237;SDS011;35069;47.906;1.892;2023-12-14T07:45:47;4.10;;;1.38;;
49237;SDS011;35069;47.906;1.892;2023-12-14T07:48:13;7.75;;;1.38;;
49237;SDS011;35069;47.906;1.892;2023-12-14T07:50:45;5.25;;;1.88;;
49237;SDS011;35069;47.906;1.892;2023-12-14T07:53:21;5.00;;;1.35;;
49237;SDS011;35069;47.906;1.892;2023-12-14T07:56:07;8.68;;;3.28;;
49237;SDS011;35069;47.906;1.892;2023-12-14T07:58:45;4.85;;;0.85;;
49237;SDS011;35069;47.906;1.892;2023-12-14T08:01:47;6.32;;;0.85;;
49237;SDS011;35069;47.906;1.892;2023-12-14T08:04:18;2.28;;;1.02;;
49237;SDS011;35069;47.906;1.892;2023-12-14T08:10:38;3.58;;;0.90;;
49237;SDS011;35069;47.906;1.892;2023-12-14T08:13:10;4.10;;;0.93;;
49237;SDS011;35069;47.906;1.892;2023-12-14T08:15:37;1.02;;;0.60;;
49237;SDS011;35069;47.906;1.892;2023-12-14T08:18:03;7.07;;;1.20;;
49237;SDS011;35069;47.906;1.892;2023-12-14T08:20:29;5.28;;;1.23;;
49237;SDS011;35069;47.906;1.892;2023-12-14T08:22:54;3.15;;;1.88;;
49237;SDS011;35069;47.906;1.892;2023-12-14T08:25:28;3.85;;;1.25;;
49237;SDS011;35069;47.906;1.892;2023-12-14T08:27:58;1.63;;;1.17;;
49237;SDS011;35069;47.906;1.892;2023-12-14T08:30:24;2.35;;;1.00;;
49237;SDS011;35069;47.906;1.892;2023-12-14T08:33:04;3.35;;;1.00;;
49237;SDS011;35069;47.906;1.892;2023-12-14T08:35:29;2.88;;;1.23;;
49237;SDS011;35069;47.906;1.892;2023-12-14T08:37:55;3.45;;;1.10;;
49237;SDS011;35069;47.906;1.892;2023-12-14T08:40:23;4.30;;;0.82;;
49237;SDS011;35069;47.906;1.892;2023-12-14T08:43:22;4.28;;;1.42;;
49237;SDS011;35069;47.906;1.892;2023-12-14T08:45:47;4.38;;;1.13;;
49237;SDS011;35069;47.906;1.892;2023-12-14T08:48:13;1.98;;;1.17;;
49237;SDS011;35069;47.906;1.892;2023-12-14T08:50:39;3.67;;;1.58;;
49237;SDS011;35069;47.906;1.892;2023-12-14T08:53:14;2.88;;;0.95;;
49237;SDS011;35069;47.906;1.892;2023-12-14T08:55:42;3.08;;;1.25;;
49237;SDS011;35069;47.906;1.892;2023-12-14T08:58:13;9.48;;;1.25;;
49237;SDS011;35069;47.906;1.892;2023-12-14T09:00:39;4.38;;;1.30;;
49237;SDS011;35069;47.906;1.892;2023-12-14T09:03:05;3.88;;;1.00;;
49237;SDS011;35069;47.906;1.892;2023-12-14T09:05:31;1.52;;;1.33;;
49237;SDS011;35069;47.906;1.892;2023-12-14T09:08:17;9.68;;;2.08;;
49237;SDS011;35069;47.906;1.892;2023-12-14T09:11:00;6.57;;;2.17;;
49237;SDS011;35069;47.906;1.892;2023-12-14T09:13:40;4.32;;;1.40;;
49237;SDS011;35069;47.906;1.892;2023-12-14T09:16:15;4.03;;;1.10;;
49237;SDS011;35069;47.906;1.892;2023-12-14T09:18:42;3.35;;;1.30;;
49237;SDS011;35069;47.906;1.892;2023-12-14T09:21:13;2.65;;;1.15;;
49237;SDS011;35069;47.906;1.892;2023-12-14T09:24:00;4.85;;;1.50;;
49237;SDS011;35069;47.906;1.892;2023-12-14T09:26:40;4.85;;;1.75;;
49237;SDS011;35069;47.906;1.892;2023-12-14T09:29:17;3.30;;;1.30;;
49237;SDS011;35069;47.906;1.892;2023-12-14T09:31:54;6.90;;;1.38;;
49237;SDS011;35069;47.906;1.892;2023-12-14T09:34:28;5.18;;;1.85;;
49237;SDS011;35069;47.906;1.892;2023-12-14T09:37:35;6.03;;;1.83;;
49237;SDS011;35069;47.906;1.892;2023-12-14T09:40:04;2.38;;;1.65;;
49237;SDS011;35069;47.906;1.892;2023-12-14T09:42:46;8.57;;;2.10;;
49237;SDS011;35069;47.906;1.892;2023-12-14T09:45:12;4.57;;;2.25;;
49237;SDS011;35069;47.906;1.892;2023-12-14T09:48:05;3.13;;;1.42;;
49237;SDS011;35069;47.906;1.892;2023-12-14T09:54:31;4.10;;;1.80;;
49237;SDS011;35069;47.906;1.892;2023-12-14T09:57:14;5.13;;;1.67;;
49237;SDS011;35069;47.906;1.892;2023-12-14T09:59:57;7.43;;;1.70;;
49237;SDS011;35069;47.906;1.892;2023-12-14T10:02:43;6.53;;;1.38;;
49237;SDS011;35069;47.906;1.892;2023-12-14T10:05:22;5.75;;;2.67;;
49237;SDS011;35069;47.906;1.892;2023-12-14T10:07:47;4.25;;;1.30;;
49237;SDS011;35069;47.906;1.892;2023-12-14T10:10:19;4.55;;;2.10;;
49237;SDS011;35069;47.906;1.892;2023-12-14T10:12:51;4.82;;;1.50;;
49237;SDS011;35069;47.906;1.892;2023-12-14T10:15:18;9.50;;;1.52;;
49237;SDS011;35069;47.906;1.892;2023-12-14T10:17:44;2.90;;;1.45;;
49237;SDS011;35069;47.906;1.892;2023-12-14T10:20:20;4.38;;;1.60;;
49237;SDS011;35069;47.906;1.892;2023-12-14T10:22:51;7.85;;;2.00;;
49237;SDS011;35069;47.906;1.892;2023-12-14T10:25:20;2.17;;;1.70;;
49237;SDS011;35069;47.906;1.892;2023-12-14T10:27:47;4.43;;;1.90;;
49237;SDS011;35069;47.906;1.892;2023-12-14T10:30:24;5.88;;;1.88;;
49237;SDS011;35069;47.906;1.892;2023-12-14T10:32:49;7.13;;;2.72;;
49237;SDS011;35069;47.906;1.892;2023-12-14T10:35:21;5.97;;;1.83;;
49237;SDS011;35069;47.906;1.892;2023-12-14T10:37:58;3.58;;;1.85;;
49237;SDS011;35069;47.906;1.892;2023-12-14T10:40:56;7.32;;;2.22;;
49237;SDS011;35069;47.906;1.892;2023-12-14T10:43:46;4.20;;;2.17;;
49237;SDS011;35069;47.906;1.892;2023-12-14T10:46:14;10.13;;;2.38;;
49237;SDS011;35069;47.906;1.892;2023-12-14T10:48:40;10.70;;;2.00;;
49237;SDS011;35069;47.906;1.892;2023-12-14T10:51:09;4.40;;;1.30;;
49237;SDS011;35069;47.906;1.892;2023-12-14T10:53:39;5.22;;;2.08;;
49237;SDS011;35069;47.906;1.892;2023-12-14T10:56:10;4.70;;;1.60;;
49237;SDS011;35069;47.906;1.892;2023-12-14T10:58:47;2.33;;;1.55;;
49237;SDS011;35069;47.906;1.892;2023-12-14T11:01:22;4.53;;;1.35;;
49237;SDS011;35069;47.906;1.892;2023-12-14T11:03:56;3.67;;;1.90;;
49237;SDS011;35069;47.906;1.892;2023-12-14T11:09:11;6.13;;;1.90;;
49237;SDS011;35069;47.906;1.892;2023-12-14T11:11:43;3.00;;;1.30;;
49237;SDS011;35069;47.906;1.892;2023-12-14T11:14:21;4.55;;;1.25;;
49237;SDS011;35069;47.906;1.892;2023-12-14T11:42:03;3.03;;;1.90;;
49237;SDS011;35069;47.906;1.892;2023-12-14T11:44:56;5.15;;;1.30;;
49237;SDS011;35069;47.906;1.892;2023-12-14T11:47:22;5.80;;;1.55;;
49237;SDS011;35069;47.906;1.892;2023-12-14T11:50:06;3.53;;;1.00;;
49237;SDS011;35069;47.906;1.892;2023-12-14T11:52:43;2.72;;;1.38;;
49237;SDS011;35069;47.906;1.892;2023-12-14T11:58:54;5.07;;;2.17;;
49237;SDS011;35069;47.906;1.892;2023-12-14T12:07:40;2.67;;;1.33;;
49237;SDS011;35069;47.906;1.892;2023-12-14T12:10:17;1.55;;;0.82;;
49237;SDS011;35069;47.906;1.892;2023-12-14T12:12:58;2.53;;;1.20;;
49237;SDS011;35069;47.906;1.892;2023-12-14T12:19:06;3.92;;;0.90;;
49237;SDS011;35069;47.906;1.892;2023-12-14T12:24:48;3.10;;;1.08;;
49237;SDS011;35069;47.906;1.892;2023-12-14T12:33:26;5.00;;;1.10;;
49237;SDS011;35069;47.906;1.892;2023-12-14T12:36:05;1.38;;;0.90;;
49237;SDS011;35069;47.906;1.892;2023-12-14T12:38:31;2.10;;;1.98;;
49237;SDS011;35069;47.906;1.892;2023-12-14T12:41:00;4.85;;;1.88;;
49237;SDS011;35069;47.906;1.892;2023-12-14T12:43:31;5.13;;;2.10;;
49237;SDS011;35069;47.906;1.892;2023-12-14T12:45:59;3.47;;;1.30;;
49237;SDS011;35069;47.906;1.892;2023-12-14T12:48:45;4.75;;;2.00;;
49237;SDS011;35069;47.906;1.892;2023-12-14T12:51:18;3.65;;;1.60;;
49237;SDS011;35069;47.906;1.892;2023-12-14T12:53:47;3.63;;;2.25;;
49237;SDS011;35069;47.906;1.892;2023-12-14T12:56:12;3.67;;;1.75;;
49237;SDS011;35069;47.906;1.892;2023-12-14T12:58:41;4.22;;;1.25;;
49237;SDS011;35069;47.906;1.892;2023-12-14T13:01:12;3.60;;;1.50;;
49237;SDS011;35069;47.906;1.892;2023-12-14T13:03:38;2.88;;;1.15;;
49237;SDS011;35069;47.906;1.892;2023-12-14T13:06:27;2.67;;;1.00;;
49237;SDS011;35069;47.906;1.892;2023-12-14T13:09:46;4.38;;;1.20;;
49237;SDS011;35069;47.906;1.892;2023-12-14T13:12:38;3.63;;;1.17;;
49237;SDS011;35069;47.906;1.892;2023-12-14T13:15:14;5.43;;;1.45;;
49237;SDS011;35069;47.906;1.892;2023-12-14T13:17:56;5.38;;;1.20;;
49237;SDS011;35069;47.906;1.892;2023-12-14T13:20:22;5.82;;;1.50;;
49237;SDS011;35069;47.906;1.892;2023-12-14T13:22:48;7.78;;;1.75;;
49237;SDS011;35069;47.906;1.892;2023-12-14T13:25:14;1.38;;;0.90;;
49237;SDS011;35069;47.906;1.892;2023-12-14T13:27:40;2.33;;;1.15;;
49237;SDS011;35069;47.906;1.892;2023-12-14T13:30:08;5.53;;;1.60;;
49237;SDS011;35069;47.906;1.892;2023-12-14T13:32:38;6.15;;;1.63;;
49237;SDS011;35069;47.906;1.892;2023-12-14T13:35:06;5.07;;;1.05;;
49237;SDS011;35069;47.906;1.892;2023-12-14T13:37:33;4.45;;;1.27;;
49237;SDS011;35069;47.906;1.892;2023-12-14T13:40:35;4.63;;;1.50;;
49237;SDS011;35069;47.906;1.892;2023-12-14T13:43:00;4.53;;;1.90;;
49237;SDS011;35069;47.906;1.892;2023-12-14T13:45:38;4.05;;;1.40;;
49237;SDS011;35069;47.906;1.892;2023-12-14T13:48:04;3.05;;;1.38;;
49237;SDS011;35069;47.906;1.892;2023-12-14T13:50:40;1.98;;;1.30;;
49237;SDS011;35069;47.906;1.892;2023-12-14T13:53:06;3.92;;;1.50;;
49237;SDS011;35069;47.906;1.892;2023-12-14T13:55:58;6.80;;;1.67;;
49237;SDS011;35069;47.906;1.892;2023-12-14T13:58:24;4.20;;;1.27;;
49237;SDS011;35069;47.906;1.892;2023-12-14T14:05:00;2.20;;;1.38;;
49237;SDS011;35069;47.906;1.892;2023-12-14T14:33:04;11.30;;;2.08;;
49237;SDS011;35069;47.906;1.892;2023-12-14T14:35:42;2.80;;;1.65;;
49237;SDS011;35069;47.906;1.892;2023-12-14T14:38:19;9.32;;;1.60;;
49237;SDS011;35069;47.906;1.892;2023-12-14T14:41:10;8.95;;;2.15;;
49237;SDS011;35069;47.906;1.892;2023-12-14T14:43:39;8.80;;;1.52;;
49237;SDS011;35069;47.906;1.892;2023-12-14T14:47:08;5.50;;;2.20;;
49237;SDS011;35069;47.906;1.892;2023-12-14T14:53:11;5.78;;;1.73;;
49237;SDS011;35069;47.906;1.892;2023-12-14T14:56:12;4.93;;;1.80;;
49237;SDS011;35069;47.906;1.892;2023-12-14T14:58:38;3.83;;;1.73;;
49237;SDS011;35069;47.906;1.892;2023-12-14T15:03:38;5.82;;;2.20;;
49237;SDS011;35069;47.906;1.892;2023-12-14T15:06:04;7.45;;;1.98;;
49237;SDS011;35069;47.906;1.892;2023-12-14T15:08:30;4.63;;;1.77;;
49237;SDS011;35069;47.906;1.892;2023-12-14T15:10:56;4.78;;;2.22;;
49237;SDS011;35069;47.906;1.892;2023-12-14T15:13:23;5.75;;;2.10;;
49237;SDS011;35069;47.906;1.892;2023-12-14T15:15:59;7.43;;;2.00;;
49237;SDS011;35069;47.906;1.892;2023-12-14T15:22:16;3.28;;;1.60;;
49237;SDS011;35069;47.906;1.892;2023-12-14T15:28:22;6.68;;;1.80;;
49237;SDS011;35069;47.906;1.892;2023-12-14T15:31:22;4.05;;;2.13;;
49237;SDS011;35069;47.906;1.892;2023-12-14T15:34:40;5.57;;;2.08;;
49237;SDS011;35069;47.906;1.892;2023-12-14T15:37:27;4.43;;;1.48;;
49237;SDS011;35069;47.906;1.892;2023-12-14T15:40:19;2.92;;;1.77;;
49237;SDS011;35069;47.906;1.892;2023-12-14T15:43:05;6.90;;;2.45;;
49237;SDS011;35069;47.906;1.892;2023-12-14T15:46:08;4.50;;;1.95;;
49237;SDS011;35069;47.906;1.892;2023-12-14T15:48:47;5.65;;;1.50;;
49237;SDS011;35069;47.906;1.892;2023-12-14T15:51:20;5.85;;;1.50;;
49237;SDS011;35069;47.906;1.892;2023-12-14T15:53:51;2.60;;;1.50;;
49237;SDS011;35069;47.906;1.892;2023-12-14T15:56:56;3.45;;;1.75;;
49237;SDS011;35069;47.906;1.892;2023-12-14T15:59:23;7.22;;;1.85;;
49237;SDS011;35069;47.906;1.892;2023-12-14T16:01:49;7.55;;;2.22;;
49237;SDS011;35069;47.906;1.892;2023-12-14T16:04:16;2.72;;;2.28;;
49237;SDS011;35069;47.906;1.892;2023-12-14T16:06:45;5.45;;;2.70;;
49237;SDS011;35069;47.906;1.892;2023-12-14T16:09:13;9.95;;;2.25;;
49237;SDS011;35069;47.906;1.892;2023-12-14T16:11:53;8.77;;;2.67;;
49237;SDS011;35069;47.906;1.892;2023-12-14T16:14:54;11.18;;;3.00;;
49237;SDS011;35069;47.906;1.892;2023-12-14T16:18:14;9.15;;;2.83;;
49237;SDS011;35069;47.906;1.892;2023-12-14T16:21:32;4.65;;;2.70;;
49237;SDS011;35069;47.906;1.892;2023-12-14T16:34:26;7.88;;;3.15;;
49237;SDS011;35069;47.906;1.892;2023-12-14T16:40:06;10.60;;;4.20;;
49237;SDS011;35069;47.906;1.892;2023-12-14T16:42:38;14.27;;;4.47;;
49237;SDS011;35069;47.906;1.892;2023-12-14T16:45:15;12.35;;;4.03;;
49237;SDS011;35069;47.906;1.892;2023-12-14T16:47:41;14.85;;;4.38;;
49237;SDS011;35069;47.906;1.892;2023-12-14T16:50:09;11.00;;;4.65;;
49237;SDS011;35069;47.906;1.892;2023-12-14T16:52:36;7.75;;;4.43;;
49237;SDS011;35069;47.906;1.892;2023-12-14T16:55:02;12.55;;;4.40;;
49237;SDS011;35069;47.906;1.892;2023-12-14T16:57:29;9.60;;;4.50;;
49237;SDS011;35069;47.906;1.892;2023-12-14T16:59:55;7.65;;;5.07;;
49237;SDS011;35069;47.906;1.892;2023-12-14T17:02:21;11.60;;;5.68;;
49237;SDS011;35069;47.906;1.892;2023-12-14T17:04:46;7.55;;;4.00;;
49237;SDS011;35069;47.906;1.892;2023-12-14T17:07:12;10.90;;;4.35;;
49237;SDS011;35069;47.906;1.892;2023-12-14T17:09:45;5.35;;;3.30;;
49237;SDS011;35069;47.906;1.892;2023-12-14T17:12:12;8.50;;;3.85;;
49237;SDS011;35069;47.906;1.892;2023-12-14T17:14:40;7.90;;;3.58;;
49237;SDS011;35069;47.906;1.892;2023-12-14T17:17:06;6.43;;;3.50;;
49237;SDS011;35069;47.906;1.892;2023-12-14T17:19:32;6.70;;;3.58;;
49237;SDS011;35069;47.906;1.892;2023-12-14T17:21:58;7.50;;;3.42;;
49237;SDS011;35069;47.906;1.892;2023-12-14T17:24:23;12.55;;;4.43;;
49237;SDS011;35069;47.906;1.892;2023-12-14T17:26:49;11.77;;;5.15;;
49237;SDS011;35069;47.906;1.892;2023-12-14T17:29:17;8.38;;;3.80;;
49237;SDS011;35069;47.906;1.892;2023-12-14T17:31:43;7.15;;;4.18;;
49237;SDS011;35069;47.906;1.892;2023-12-14T17:40:44;7.10;;;3.65;;
49237;SDS011;35069;47.906;1.892;2023-12-14T17:43:09;7.03;;;3.60;;
49237;SDS011;35069;47.906;1.892;2023-12-14T17:45:35;4.03;;;3.20;;
49237;SDS011;35069;47.906;1.892;2023-12-14T17:48:01;11.48;;;4.35;;
49237;SDS011;35069;47.906;1.892;2023-12-14T17:50:26;7.57;;;4.43;;